Time;durP1;ratioP1;P1;durP2;ratioP2;P2;SDS_P1;SDS_P2;PMS_P1;PMS_P2;Temp;Humidity;BMP_temperature;BMP_pressure;BME280_temperature;BME280_humidity;BME280_pressure;Samples;Min_cycle;Max_cycle;Signal;HPM_P1;HPM_P2
2022/08/09 00:02:06;;;;;;;0.00;0.00;;;16.90;80.30;;;;;;5015705;28;20590;-66
2022/08/09 00:04:33;;;;;;;0.00;0.00;;;16.90;80.50;;;;;;5018504;28;20065;-66
2022/08/09 00:06:59;;;;;;;0.00;0.00;;;16.90;80.60;;;;;;5017153;28;20069;-66
2022/08/09 00:09:25;;;;;;;0.05;0.05;;;16.90;80.80;;;;;;5020005;28;20088;-66
2022/08/09 00:11:51;;;;;;;0.00;0.00;;;16.90;80.80;;;;;;5020516;28;20900;-66
2022/08/09 00:14:17;;;;;;;0.00;0.00;;;16.90;81.10;;;;;;5020026;28;20061;-65
2022/08/09 00:16:43;;;;;;;0.00;0.00;;;16.90;81.10;;;;;;5018815;28;20038;-66
2022/08/09 00:19:09;;;;;;;0.00;0.00;;;16.90;81.20;;;;;;5020422;28;20045;-66
2022/08/09 00:21:35;;;;;;;0.00;0.00;;;16.90;81.70;;;;;;5020995;28;20045;-66
2022/08/09 00:24:02;;;;;;;0.00;0.00;;;16.90;81.70;;;;;;5018195;28;20080;-65
2022/08/09 00:26:29;;;;;;;0.00;0.00;;;16.90;81.90;;;;;;5021004;28;20041;-66
2022/08/09 00:28:55;;;;;;;0.00;0.00;;;16.90;81.70;;;;;;5021276;28;20045;-66
2022/08/09 00:31:22;;;;;;;0.00;0.00;;;16.90;81.50;;;;;;5024999;28;20049;-66
2022/08/09 00:33:48;;;;;;;0.00;0.00;;;16.90;81.00;;;;;;5024867;28;20120;-66
2022/08/09 00:36:14;;;;;;;0.00;0.00;;;16.80;80.80;;;;;;5020037;28;20069;-66
2022/08/09 00:38:40;;;;;;;0.00;0.00;;;16.80;80.70;;;;;;5003158;28;20420;-66
2022/08/09 00:41:06;;;;;;;0.00;0.00;;;16.80;80.60;;;;;;5021413;28;20049;-65
2022/08/09 00:43:33;;;;;;;0.00;0.00;;;16.80;80.80;;;;;;5007775;28;20517;-66
2022/08/09 00:45:59;;;;;;;0.00;0.00;;;16.70;80.90;;;;;;5027000;28;20407;-66
2022/08/09 00:48:24;;;;;;;0.00;0.00;;;16.70;80.90;;;;;;5031831;28;20053;-66
2022/08/09 00:50:50;;;;;;;0.00;0.00;;;16.60;80.90;;;;;;5031939;28;20045;-66
2022/08/09 00:53:16;;;;;;;0.00;0.00;;;16.60;80.90;;;;;;5031776;28;20053;-66
2022/08/09 00:55:42;;;;;;;0.00;0.00;;;16.60;81.00;;;;;;5032302;28;20041;-67
2022/08/09 00:58:07;;;;;;;0.00;0.00;;;16.60;81.10;;;;;;5031595;28;20136;-66
2022/08/09 01:00:36;;;;;;;0.00;0.00;;;16.50;81.10;;;;;;5031230;28;20037;-66
2022/08/09 01:03:16;;;;;;;0.00;0.00;;;16.50;81.00;;;;;;5031736;28;20410;-66
2022/08/09 01:06:06;;;;;;;0.00;0.00;;;16.50;81.20;;;;;;5031286;28;20048;-66
2022/08/09 01:08:55;;;;;;;0.00;0.00;;;16.50;81.20;;;;;;5031296;28;20041;-66
2022/08/09 01:11:47;;;;;;;0.00;0.00;;;16.40;81.30;;;;;;5031260;28;20409;-66
2022/08/09 01:14:33;;;;;;;0.00;0.00;;;16.40;81.40;;;;;;5031532;28;20052;-66
2022/08/09 01:17:20;;;;;;;0.00;0.00;;;16.40;81.60;;;;;;5030959;28;20509;-66
2022/08/09 01:20:04;;;;;;;0.00;0.00;;;16.30;81.60;;;;;;5031233;28;20050;-66
2022/08/09 01:22:36;;;;;;;0.00;0.00;;;16.30;81.60;;;;;;5030939;28;20038;-66
2022/08/09 01:25:23;;;;;;;0.00;0.00;;;16.30;81.60;;;;;;5013187;28;20482;-66
2022/08/09 01:27:53;;;;;;;0.00;0.00;;;16.30;81.80;;;;;;5030582;28;20455;-65
2022/08/09 01:30:21;;;;;;;0.00;0.00;;;16.30;81.70;;;;;;5031546;28;20068;-66
2022/08/09 01:32:49;;;;;;;0.00;0.00;;;16.30;81.80;;;;;;5031101;28;20052;-66
2022/08/09 01:35:29;;;;;;;0.00;0.00;;;16.20;81.80;;;;;;5031381;28;20049;-66
2022/08/09 01:37:59;;;;;;;0.00;0.00;;;16.20;81.80;;;;;;5030760;28;20152;-66
2022/08/09 01:40:27;;;;;;;0.00;0.00;;;16.20;81.90;;;;;;5029697;28;20038;-66
2022/08/09 01:42:54;;;;;;;0.00;0.00;;;16.10;81.70;;;;;;5031000;28;20041;-66
2022/08/09 01:45:20;;;;;;;0.00;0.00;;;16.20;81.80;;;;;;5031233;28;20486;-66
2022/08/09 01:47:47;;;;;;;0.00;0.00;;;16.10;82.00;;;;;;5029922;28;20049;-66
2022/08/09 01:50:13;;;;;;;0.00;0.00;;;16.20;82.00;;;;;;5030786;28;20045;-66
2022/08/09 01:52:40;;;;;;;0.00;0.00;;;16.10;82.20;;;;;;5030746;28;20046;-66
2022/08/09 01:55:08;;;;;;;0.00;0.00;;;16.10;82.40;;;;;;5030769;28;20037;-65
2022/08/09 01:57:41;;;;;;;0.00;0.00;;;16.10;82.80;;;;;;5014237;28;20052;-66
2022/08/09 02:00:09;;;;;;;0.00;0.00;;;16.20;83.10;;;;;;5030398;28;20102;-65
2022/08/09 02:02:39;;;;;;;0.00;0.00;;;16.20;83.10;;;;;;5030690;28;20065;-66
2022/08/09 02:05:08;;;;;;;0.00;0.00;;;16.20;83.10;;;;;;5030432;28;20171;-66
2022/08/09 02:07:36;;;;;;;0.00;0.00;;;16.20;83.10;;;;;;5030610;28;20041;-66
2022/08/09 02:10:09;;;;;;;0.00;0.00;;;16.20;83.00;;;;;;5030493;28;20057;-66
2022/08/09 02:12:37;;;;;;;0.00;0.00;;;16.20;82.70;;;;;;5030579;28;20042;-66
2022/08/09 02:15:06;;;;;;;0.00;0.00;;;16.30;83.00;;;;;;5030266;28;20057;-66
2022/08/09 02:17:32;;;;;;;0.00;0.00;;;16.20;82.80;;;;;;5012433;28;20487;-66
2022/08/09 02:19:59;;;;;;;0.00;0.00;;;16.30;82.70;;;;;;5030633;28;20057;-66
2022/08/09 02:22:36;;;;;;;0.00;0.00;;;16.30;83.00;;;;;;5030340;28;20049;-65
2022/08/09 02:25:08;;;;;;;0.00;0.00;;;16.30;82.90;;;;;;5017472;28;20135;-66
2022/08/09 02:27:37;;;;;;;0.00;0.00;;;16.20;82.70;;;;;;5027705;28;20037;-66
2022/08/09 02:30:04;;;;;;;0.00;0.00;;;16.30;82.70;;;;;;5009062;28;20045;-66
2022/08/09 02:32:36;;;;;;;0.00;0.00;;;16.20;82.90;;;;;;5029929;28;20120;-66
2022/08/09 02:35:06;;;;;;;0.00;0.00;;;16.30;83.10;;;;;;5030649;28;20045;-66
2022/08/09 02:37:35;;;;;;;0.00;0.00;;;16.30;83.30;;;;;;5011865;28;20429;-66
2022/08/09 02:40:06;;;;;;;0.00;0.00;;;16.30;83.30;;;;;;5012581;28;20422;-66
2022/08/09 02:42:39;;;;;;;0.00;0.00;;;16.30;83.10;;;;;;5030273;28;20103;-66
2022/08/09 02:45:10;;;;;;;0.00;0.00;;;16.20;83.00;;;;;;5030340;28;20045;-66
2022/08/09 02:47:37;;;;;;;0.00;0.00;;;16.30;83.50;;;;;;5030102;28;20041;-66
2022/08/09 02:50:11;;;;;;;0.00;0.00;;;16.30;83.50;;;;;;5030081;28;20498;-65
2022/08/09 02:52:44;;;;;;;0.00;0.00;;;16.20;83.30;;;;;;5030151;28;20191;-66
2022/08/09 02:55:11;;;;;;;0.00;0.00;;;16.20;83.10;;;;;;5030679;28;20505;-65
2022/08/09 02:57:38;;;;;;;0.00;0.00;;;16.20;83.00;;;;;;5029750;28;20120;-66
2022/08/09 03:00:08;;;;;;;0.00;0.00;;;16.20;83.10;;;;;;4998888;28;20038;-66
2022/08/09 03:02:36;;;;;;;0.00;0.00;;;16.20;83.20;;;;;;5029326;28;20041;-66
2022/08/09 03:05:04;;;;;;;0.00;0.00;;;16.20;83.30;;;;;;5029432;28;20053;-66
2022/08/09 03:07:31;;;;;;;0.00;0.00;;;16.10;83.30;;;;;;5029414;28;20096;-66
2022/08/09 03:09:57;;;;;;;0.00;0.00;;;16.10;83.20;;;;;;5029223;28;20406;-66
2022/08/09 03:12:25;;;;;;;0.00;0.00;;;16.10;83.10;;;;;;5029540;28;20179;-66
2022/08/09 03:14:52;;;;;;;0.00;0.00;;;16.10;82.80;;;;;;5028770;28;20033;-66
2022/08/09 03:17:20;;;;;;;0.00;0.00;;;16.00;82.60;;;;;;5028829;28;20041;-66
2022/08/09 03:19:46;;;;;;;0.00;0.00;;;16.10;82.50;;;;;;5028759;28;20076;-66
2022/08/09 03:22:13;;;;;;;0.00;0.00;;;16.00;82.40;;;;;;5029228;28;20409;-66
2022/08/09 03:24:39;;;;;;;0.00;0.00;;;16.00;82.40;;;;;;5029045;28;20044;-66
2022/08/09 03:27:08;;;;;;;0.00;0.00;;;16.00;82.30;;;;;;5028982;28;20042;-66
2022/08/09 03:29:35;;;;;;;0.00;0.00;;;16.00;82.40;;;;;;5028598;28;20049;-66
2022/08/09 03:32:03;;;;;;;0.00;0.00;;;16.00;82.60;;;;;;5029113;28;20041;-66
2022/08/09 03:34:28;;;;;;;0.00;0.00;;;16.00;82.60;;;;;;5029160;28;20491;-66
2022/08/09 03:36:56;;;;;;;0.00;0.00;;;16.00;82.60;;;;;;5028481;28;20044;-66
2022/08/09 03:39:24;;;;;;;0.00;0.00;;;16.00;82.50;;;;;;5029109;28;20060;-66
2022/08/09 03:41:50;;;;;;;0.00;0.00;;;16.00;82.40;;;;;;5029129;28;20038;-66
2022/08/09 03:44:16;;;;;;;0.00;0.00;;;16.00;82.40;;;;;;5028865;28;20491;-65
2022/08/09 03:46:42;;;;;;;0.00;0.00;;;16.00;82.30;;;;;;5028499;28;20410;-66
2022/08/09 03:49:08;;;;;;;0.00;0.00;;;16.00;82.30;;;;;;5028664;28;20042;-66
2022/08/09 03:51:34;;;;;;;0.00;0.00;;;16.00;82.60;;;;;;5028675;28;20932;-66
2022/08/09 03:54:00;;;;;;;0.00;0.00;;;15.90;82.50;;;;;;5028850;28;20062;-66
2022/08/09 03:56:26;;;;;;;0.00;0.00;;;15.90;82.60;;;;;;5028636;28;20136;-65
2022/08/09 03:58:52;;;;;;;0.00;0.00;;;15.90;82.60;;;;;;5028290;28;20115;-66
2022/08/09 04:01:17;;;;;;;0.00;0.00;;;15.90;82.40;;;;;;5028209;28;20044;-66
2022/08/09 04:03:44;;;;;;;0.00;0.00;;;15.80;82.30;;;;;;5030347;28;20041;-66
2022/08/09 04:06:10;;;;;;;0.00;0.00;;;15.80;82.50;;;;;;5032132;28;20034;-66
2022/08/09 04:08:35;;;;;;;0.00;0.00;;;15.70;82.40;;;;;;5014839;28;20049;-66
2022/08/09 04:11:01;;;;;;;0.00;0.00;;;15.70;82.30;;;;;;5032744;28;20457;-66
2022/08/09 04:13:26;;;;;;;0.00;0.00;;;15.60;82.30;;;;;;5031763;28;20046;-66
2022/08/09 04:15:52;;;;;;;0.00;0.00;;;15.60;82.40;;;;;;5032016;28;20128;-66
2022/08/09 04:18:18;;;;;;;0.00;0.00;;;15.50;82.50;;;;;;5032334;28;20076;-66
2022/08/09 04:20:45;;;;;;;0.00;0.00;;;15.50;82.40;;;;;;5032587;28;20049;-66
2022/08/09 04:23:11;;;;;;;0.00;0.00;;;15.50;82.50;;;;;;5031755;28;20544;-66
2022/08/09 04:25:37;;;;;;;0.00;0.00;;;15.50;82.70;;;;;;5032250;28;20042;-67
2022/08/09 04:28:03;;;;;;;0.00;0.00;;;15.40;82.40;;;;;;5022361;28;20056;-66
2022/08/09 04:30:28;;;;;;;0.00;0.00;;;15.40;82.50;;;;;;5032532;28;20100;-66
2022/08/09 04:32:54;;;;;;;0.00;0.00;;;15.30;82.60;;;;;;5032209;28;20038;-67
2022/08/09 04:35:19;;;;;;;0.00;0.00;;;15.30;82.80;;;;;;5032686;28;20129;-67
2022/08/09 04:37:45;;;;;;;0.00;0.00;;;15.20;82.80;;;;;;5030875;28;20080;-67
2022/08/09 04:40:11;;;;;;;0.00;0.00;;;15.20;82.90;;;;;;5023376;28;20063;-67
2022/08/09 04:42:37;;;;;;;0.00;0.00;;;15.10;83.10;;;;;;5027108;28;20121;-67
2022/08/09 04:45:04;;;;;;;0.00;0.00;;;15.10;83.60;;;;;;5028329;28;20545;-66
2022/08/09 04:47:30;;;;;;;0.00;0.00;;;15.10;83.80;;;;;;5010378;28;20046;-67
2022/08/09 04:49:55;;;;;;;0.00;0.00;;;15.20;83.70;;;;;;5030194;28;20037;-66
2022/08/09 04:52:23;;;;;;;0.00;0.00;;;15.10;83.60;;;;;;5019200;28;20115;-67
2022/08/09 04:54:52;;;;;;;0.00;0.00;;;15.20;83.60;;;;;;5026091;28;20041;-67
2022/08/09 04:57:18;;;;;;;0.00;0.00;;;15.20;83.70;;;;;;5030978;28;20136;-66
2022/08/09 04:59:44;;;;;;;0.00;0.00;;;15.20;84.00;;;;;;5030823;28;20041;-66
2022/08/09 05:02:09;;;;;;;0.00;0.00;;;15.30;84.10;;;;;;5030257;28;20054;-67
2022/08/09 05:04:35;;;;;;;0.00;0.00;;;15.30;84.10;;;;;;5030665;28;20473;-69
2022/08/09 05:07:01;;;;;;;0.00;0.00;;;15.30;84.20;;;;;;5030985;28;20453;-67
2022/08/09 05:09:29;;;;;;;0.00;0.00;;;15.40;84.10;;;;;;5030963;28;20264;-67
2022/08/09 05:11:55;;;;;;;0.00;0.00;;;15.40;84.10;;;;;;5028323;28;20084;-67
2022/08/09 05:14:20;;;;;;;0.00;0.00;;;15.50;84.00;;;;;;5013507;28;20108;-67
2022/08/09 05:16:46;;;;;;;0.00;0.00;;;15.50;84.10;;;;;;4985175;28;20048;-67
2022/08/09 05:19:13;;;;;;;0.00;0.00;;;15.50;83.90;;;;;;5030278;28;20095;-66
2022/08/09 05:21:39;;;;;;;0.00;0.00;;;15.60;84.10;;;;;;5029950;28;20044;-67
2022/08/09 05:24:05;;;;;;;0.00;0.00;;;15.60;84.30;;;;;;5028702;28;20164;-66
2022/08/09 05:26:31;;;;;;;0.00;0.00;;;15.70;84.50;;;;;;5027566;28;20132;-66
2022/08/09 05:28:57;;;;;;;0.00;0.00;;;15.70;84.40;;;;;;5027916;28;20063;-67
2022/08/09 05:31:23;;;;;;;0.00;0.00;;;15.80;84.60;;;;;;5011506;28;20049;-66
2022/08/09 05:33:48;;;;;;;0.00;0.00;;;15.80;84.70;;;;;;5029856;28;20128;-66
2022/08/09 05:36:14;;;;;;;0.00;0.00;;;15.90;85.00;;;;;;5030499;28;20063;-66
2022/08/09 05:38:39;;;;;;;0.00;0.00;;;16.00;84.90;;;;;;5029779;28;20084;-67
2022/08/09 05:41:06;;;;;;;0.00;0.00;;;16.00;84.90;;;;;;5009741;28;20061;-67
2022/08/09 05:43:34;;;;;;;0.00;0.00;;;16.00;85.00;;;;;;5011104;28;20119;-67
2022/08/09 05:46:00;;;;;;;0.00;0.00;;;16.10;85.10;;;;;;5031459;28;20049;-66
2022/08/09 05:48:27;;;;;;;0.00;0.00;;;16.20;85.40;;;;;;5029759;28;20061;-67
2022/08/09 05:50:53;;;;;;;0.00;0.00;;;16.20;85.40;;;;;;5029357;28;20452;-68
2022/08/09 05:53:18;;;;;;;0.00;0.00;;;16.30;85.50;;;;;;5030144;28;20046;-68
2022/08/09 05:55:44;;;;;;;0.00;0.00;;;16.40;85.70;;;;;;5029968;28;20037;-68
2022/08/09 05:58:10;;;;;;;0.00;0.00;;;16.50;85.40;;;;;;5028693;28;20050;-67
2022/08/09 06:00:36;;;;;;;0.00;0.00;;;16.50;85.40;;;;;;5029786;28;20383;-67
2022/08/09 06:03:03;;;;;;;0.00;0.00;;;16.60;85.60;;;;;;5029499;28;20541;-67
2022/08/09 06:05:32;;;;;;;0.00;0.00;;;16.60;85.30;;;;;;5009181;28;20049;-68
2022/08/09 06:07:57;;;;;;;0.00;0.00;;;16.60;85.10;;;;;;5027291;28;20156;-67
2022/08/09 06:10:36;;;;;;;0.00;0.00;;;16.70;85.10;;;;;;5030005;28;20132;-67
2022/08/09 06:13:12;;;;;;;0.08;0.08;;;16.80;85.10;;;;;;5028758;28;20136;-68
2022/08/09 06:15:38;;;;;;;0.00;0.00;;;16.80;84.90;;;;;;5025946;28;20112;-67
2022/08/09 06:18:05;;;;;;;0.03;0.03;;;16.90;85.00;;;;;;5019044;28;20057;-67
2022/08/09 06:20:31;;;;;;;0.00;0.00;;;17.00;85.00;;;;;;5029701;28;20393;-67
2022/08/09 06:22:57;;;;;;;0.00;0.00;;;17.00;85.30;;;;;;5011587;28;20049;-67
2022/08/09 06:25:23;;;;;;;0.00;0.00;;;17.10;85.30;;;;;;5010638;28;20514;-68
2022/08/09 06:27:49;;;;;;;0.00;0.00;;;17.10;85.00;;;;;;5028653;28;20053;-66
2022/08/09 06:30:21;;;;;;;0.00;0.00;;;17.10;84.70;;;;;;5011579;28;20045;-66
2022/08/09 06:32:47;;;;;;;0.00;0.00;;;17.20;84.40;;;;;;5029351;28;20103;-67
2022/08/09 06:35:13;;;;;;;0.00;0.00;;;17.30;84.50;;;;;;5030152;28;20504;-66
2022/08/09 06:37:39;;;;;;;0.00;0.00;;;17.30;84.40;;;;;;5029089;28;20115;-66
2022/08/09 06:40:05;;;;;;;0.00;0.00;;;17.40;84.00;;;;;;4994897;28;20042;-65
2022/08/09 06:42:31;;;;;;;0.00;0.00;;;17.50;84.10;;;;;;5028358;28;20085;-67
2022/08/09 06:44:57;;;;;;;0.00;0.00;;;17.50;84.00;;;;;;5028929;28;20068;-65
2022/08/09 06:47:23;;;;;;;0.00;0.00;;;17.50;83.70;;;;;;5044548;28;20058;-64
2022/08/09 06:49:48;;;;;;;0.00;0.00;;;17.60;84.00;;;;;;5027880;28;20056;-65
2022/08/09 06:52:14;;;;;;;0.00;0.00;;;17.60;83.80;;;;;;5010685;28;20083;-66
2022/08/09 06:54:40;;;;;;;0.00;0.00;;;17.70;83.70;;;;;;5028568;28;20045;-66
2022/08/09 06:57:06;;;;;;;0.00;0.00;;;17.70;83.80;;;;;;5027738;28;20061;-67
2022/08/09 06:59:31;;;;;;;0.00;0.00;;;17.80;84.10;;;;;;5028871;28;20060;-66
2022/08/09 07:01:57;;;;;;;0.00;0.00;;;17.90;84.00;;;;;;5006295;28;20053;-66
2022/08/09 07:04:23;;;;;;;0.05;0.05;;;17.90;83.90;;;;;;5028571;28;20092;-66
2022/08/09 07:06:49;;;;;;;0.00;0.00;;;18.00;83.60;;;;;;5022988;28;20061;-66
2022/08/09 07:09:15;;;;;;;0.00;0.00;;;18.10;83.60;;;;;;5028051;28;20076;-66
2022/08/09 07:11:40;;;;;;;0.00;0.00;;;18.10;83.70;;;;;;5023790;28;20103;-67
2022/08/09 07:14:06;;;;;;;0.00;0.00;;;18.10;83.50;;;;;;5028173;28;20053;-67
2022/08/09 07:16:33;;;;;;;0.00;0.00;;;18.20;83.90;;;;;;5027593;28;20401;-67
2022/08/09 07:18:58;;;;;;;0.00;0.00;;;18.30;83.70;;;;;;5030972;28;20115;-67
2022/08/09 07:21:24;;;;;;;0.00;0.00;;;18.30;83.80;;;;;;5029875;28;20471;-67
2022/08/09 07:23:49;;;;;;;0.00;0.00;;;18.40;83.60;;;;;;5028813;28;20132;-66
2022/08/09 07:26:15;;;;;;;0.00;0.00;;;18.50;83.40;;;;;;5032243;28;20080;-66
2022/08/09 07:28:41;;;;;;;0.00;0.00;;;18.50;83.30;;;;;;5028725;28;20045;-67
2022/08/09 07:31:06;;;;;;;0.00;0.00;;;18.60;83.10;;;;;;5041442;28;20049;-66
2022/08/09 07:33:33;;;;;;;0.00;0.00;;;18.60;82.70;;;;;;5043136;28;20053;-66
2022/08/09 07:35:59;;;;;;;0.17;0.17;;;18.60;82.60;;;;;;5027117;28;20076;-68
2022/08/09 07:38:24;;;;;;;0.00;0.00;;;18.60;82.50;;;;;;5037234;28;20069;-66
2022/08/09 07:40:52;;;;;;;0.28;0.28;;;18.70;82.40;;;;;;5022260;28;20037;-65
2022/08/09 07:43:18;;;;;;;0.00;0.00;;;18.70;82.20;;;;;;5012871;28;20053;-64
2022/08/09 07:45:44;;;;;;;0.00;0.00;;;18.80;81.90;;;;;;5018872;28;20135;-66
2022/08/09 07:48:11;;;;;;;0.00;0.00;;;18.90;81.60;;;;;;5021002;28;20470;-66
2022/08/09 07:50:39;;;;;;;0.00;0.00;;;18.90;81.30;;;;;;5001904;28;20053;-66
2022/08/09 07:53:06;;;;;;;0.00;0.00;;;18.90;81.10;;;;;;5017613;28;20069;-65
2022/08/09 07:55:32;;;;;;;0.00;0.00;;;19.00;81.10;;;;;;5019424;28;20037;-66
2022/08/09 07:57:58;;;;;;;0.00;0.00;;;19.00;80.90;;;;;;5020044;28;20402;-66
2022/08/09 08:00:24;;;;;;;0.00;0.00;;;19.10;80.60;;;;;;5026592;28;20542;-66
2022/08/09 08:02:50;;;;;;;0.00;0.00;;;19.10;80.20;;;;;;5020375;28;20072;-66
2022/08/09 08:05:16;;;;;;;0.00;0.00;;;19.20;79.70;;;;;;5019084;28;20041;-66
2022/08/09 08:07:41;;;;;;;0.00;0.00;;;19.20;79.30;;;;;;5018656;28;20081;-66
2022/08/09 08:10:09;;;;;;;0.00;0.00;;;19.20;78.50;;;;;;5013830;28;20152;-66
2022/08/09 08:12:36;;;;;;;0.00;0.00;;;19.30;78.10;;;;;;5017700;28;20729;-65
2022/08/09 08:15:03;;;;;;;0.00;0.00;;;19.40;77.80;;;;;;4992160;28;20054;-65
2022/08/09 08:17:28;;;;;;;0.00;0.00;;;19.50;77.10;;;;;;5020017;28;20061;-65
2022/08/09 08:19:54;;;;;;;1.50;1.40;;;19.40;76.60;;;;;;5009214;28;20108;-65
2022/08/09 08:22:20;;;;;;;0.00;0.00;;;19.40;77.00;;;;;;5022795;28;20049;-67
2022/08/09 08:24:46;;;;;;;0.00;0.00;;;19.40;76.70;;;;;;5024620;28;20057;-69
2022/08/09 08:27:12;;;;;;;0.00;0.00;;;19.30;75.90;;;;;;5024629;28;20053;-66
2022/08/09 08:29:38;;;;;;;0.47;0.47;;;19.30;76.50;;;;;;4988945;28;20041;-63
2022/08/09 08:32:03;;;;;;;0.00;0.00;;;19.30;76.70;;;;;;5021728;28;20176;-65
2022/08/09 08:34:29;;;;;;;0.00;0.00;;;19.30;76.80;;;;;;5016206;28;20042;-65
2022/08/09 08:36:55;;;;;;;0.00;0.00;;;19.20;76.70;;;;;;5025944;28;20073;-65
2022/08/09 08:39:20;;;;;;;0.00;0.00;;;19.30;76.70;;;;;;5025910;28;20540;-65
2022/08/09 08:41:46;;;;;;;0.00;0.00;;;19.50;77.00;;;;;;5026544;28;20841;-65
2022/08/09 08:44:13;;;;;;;0.35;0.35;;;19.60;76.90;;;;;;5024455;28;20037;-65
2022/08/09 08:46:39;;;;;;;0.00;0.00;;;19.70;76.50;;;;;;5027647;28;20041;-65
2022/08/09 08:49:10;;;;;;;0.00;0.00;;;19.90;76.20;;;;;;5026922;28;20045;-65
2022/08/09 08:51:38;;;;;;;0.00;0.00;;;20.00;75.80;;;;;;5031359;28;20053;-65
2022/08/09 08:54:07;;;;;;;0.00;0.00;;;20.10;75.80;;;;;;5030956;28;20057;-70
2022/08/09 08:56:37;;;;;;;0.00;0.00;;;20.20;75.30;;;;;;5031270;28;20110;-69
2022/08/09 08:59:08;;;;;;;0.00;0.00;;;20.30;74.90;;;;;;5030196;28;20087;-67
2022/08/09 09:01:40;;;;;;;0.00;0.00;;;20.40;74.50;;;;;;5012236;28;20057;-66
2022/08/09 09:04:11;;;;;;;0.00;0.00;;;20.40;74.00;;;;;;5030492;28;20049;-66
2022/08/09 09:06:40;;;;;;;0.17;0.17;;;20.50;73.60;;;;;;5030587;28;20083;-65
2022/08/09 09:09:07;;;;;;;0.00;0.00;;;20.50;73.70;;;;;;5029789;28;20053;-66
2022/08/09 09:11:35;;;;;;;0.00;0.00;;;20.60;73.30;;;;;;5029331;28;20053;-67
2022/08/09 09:14:10;;;;;;;0.00;0.00;;;20.70;73.40;;;;;;5028738;28;20037;-68
2022/08/09 09:16:35;;;;;;;0.00;0.00;;;20.70;72.80;;;;;;5029444;28;20104;-67
2022/08/09 09:19:06;;;;;;;0.00;0.00;;;20.80;73.20;;;;;;5029459;28;20041;-67
2022/08/09 09:21:32;;;;;;;0.00;0.00;;;20.90;73.30;;;;;;5029655;28;20091;-67
2022/08/09 09:24:03;;;;;;;0.00;0.00;;;20.90;73.00;;;;;;5027565;28;20061;-67
2022/08/09 09:26:29;;;;;;;;;;;21.00;72.30;;;;;;5012264;28;21135;-66
2022/08/09 09:28:55;;;;;;;0.00;0.00;;;21.10;72.60;;;;;;5029513;28;20011;-67
2022/08/09 09:31:23;;;;;;;0.00;0.00;;;21.10;72.50;;;;;;5028623;28;20053;-67
2022/08/09 09:33:49;;;;;;;2.63;1.35;;;21.20;71.90;;;;;;4995308;28;20541;-67
2022/08/09 09:36:15;;;;;;;0.00;0.00;;;21.30;71.40;;;;;;5028916;28;20081;-67
2022/08/09 09:38:49;;;;;;;0.00;0.00;;;21.30;71.70;;;;;;5028473;28;20057;-67
2022/08/09 09:41:25;;;;;;;0.00;0.00;;;21.30;72.50;;;;;;5027118;28;20168;-67
2022/08/09 09:43:55;;;;;;;0.00;0.00;;;21.20;71.60;;;;;;5028764;28;20103;-64
2022/08/09 09:46:47;;;;;;;0.00;0.00;;;21.10;71.40;;;;;;5028038;28;20045;-63
2022/08/09 09:49:19;;;;;;;0.00;0.00;;;21.10;72.50;;;;;;5022600;28;20053;-64
2022/08/09 09:51:45;;;;;;;0.00;0.00;;;21.10;72.20;;;;;;4996196;28;1051650;-65
2022/08/09 09:54:11;;;;;;;0.00;0.00;;;21.00;72.20;;;;;;5032184;28;20068;-64
2022/08/09 09:56:51;;;;;;;0.00;0.00;;;20.90;72.50;;;;;;5040792;28;20034;-64
2022/08/09 09:59:32;;;;;;;0.00;0.00;;;20.90;72.60;;;;;;5016634;28;20053;-63
2022/08/09 10:01:59;;;;;;;0.00;0.00;;;20.80;72.90;;;;;;4995065;28;20053;-64
2022/08/09 10:04:25;;;;;;;0.00;0.00;;;20.80;72.00;;;;;;5027795;28;20041;-68
2022/08/09 10:06:56;;;;;;;0.00;0.00;;;20.80;71.90;;;;;;5040514;28;20037;-68
2022/08/09 10:09:22;;;;;;;0.00;0.00;;;20.80;71.10;;;;;;5029054;28;20057;-69
2022/08/09 10:11:56;;;;;;;0.00;0.00;;;20.80;71.30;;;;;;5021065;28;20407;-67
2022/08/09 10:14:26;;;;;;;0.00;0.00;;;20.80;71.60;;;;;;5014722;28;20041;-67
2022/08/09 10:16:51;;;;;;;0.00;0.00;;;20.80;71.70;;;;;;5019127;28;20414;-66
2022/08/09 10:19:17;;;;;;;0.00;0.00;;;20.90;71.00;;;;;;5012254;28;20045;-65
2022/08/09 10:21:46;;;;;;;0.00;0.00;;;21.00;70.20;;;;;;5005204;28;20053;-65
2022/08/09 10:24:14;;;;;;;0.00;0.00;;;21.20;70.50;;;;;;5025959;28;20052;-64
2022/08/09 10:26:40;;;;;;;0.00;0.00;;;21.30;69.70;;;;;;5013400;28;20048;-65
2022/08/09 10:29:06;;;;;;;0.00;0.00;;;21.50;69.80;;;;;;5026804;28;20038;-64
2022/08/09 10:31:32;;;;;;;0.00;0.00;;;21.50;69.10;;;;;;5030195;28;20048;-63
2022/08/09 10:33:58;;;;;;;0.00;0.00;;;21.50;70.00;;;;;;5030223;28;20038;-65
2022/08/09 10:36:24;;;;;;;0.00;0.00;;;21.50;70.30;;;;;;5010051;28;20092;-65
2022/08/09 10:38:50;;;;;;;0.00;0.00;;;21.50;70.40;;;;;;5027086;28;20084;-65
2022/08/09 10:41:17;;;;;;;0.00;0.00;;;21.50;69.80;;;;;;5029797;28;20037;-65
2022/08/09 10:43:47;;;;;;;0.05;0.05;;;21.50;69.80;;;;;;5025860;28;20241;-64
2022/08/09 10:46:41;;;;;;;0.00;0.00;;;21.60;70.00;;;;;;5029139;28;20082;-64
2022/08/09 10:49:32;;;;;;;0.00;0.00;;;21.70;69.90;;;;;;5028122;28;20051;-66
2022/08/09 10:52:21;;;;;;;0.00;0.00;;;21.70;69.40;;;;;;5022770;28;20445;-64
2022/08/09 10:54:49;;;;;;;0.00;0.00;;;21.80;69.60;;;;;;5022002;28;20072;-64
2022/08/09 10:57:16;;;;;;;0.00;0.00;;;22.00;69.40;;;;;;5025281;28;20046;-64
2022/08/09 10:59:43;;;;;;;0.00;0.00;;;22.10;68.70;;;;;;5021624;28;20084;-62
2022/08/09 11:02:14;;;;;;;0.00;0.00;;;22.10;67.60;;;;;;5026927;28;20116;-63
2022/08/09 11:04:41;;;;;;;;;;;22.10;67.40;;;;;;4992538;28;20045;-63
2022/08/09 11:07:07;;;;;;;0.00;0.00;;;22.20;66.20;;;;;;5007841;28;19921;-64
2022/08/09 11:09:42;;;;;;;0.00;0.00;;;22.10;66.70;;;;;;5027499;28;20042;-63
2022/08/09 11:12:23;;;;;;;0.00;0.00;;;22.20;67.20;;;;;;5028535;28;20099;-64
2022/08/09 11:15:01;;;;;;;0.00;0.00;;;22.10;65.80;;;;;;5024914;28;20120;-65
2022/08/09 11:17:29;;;;;;;0.00;0.00;;;22.10;66.10;;;;;;5010275;28;20060;-63
2022/08/09 11:20:08;;;;;;;0.00;0.00;;;22.10;67.10;;;;;;5011734;28;20556;-62
2022/08/09 11:22:43;;;;;;;0.10;0.10;;;22.20;66.20;;;;;;5029225;28;20376;-64
2022/08/09 11:25:16;;;;;;;0.00;0.00;;;22.10;66.80;;;;;;5007389;28;20045;-64
2022/08/09 11:27:53;;;;;;;0.05;0.05;;;22.00;66.60;;;;;;5009733;28;20104;-64
2022/08/09 11:30:22;;;;;;;0.00;0.00;;;21.90;66.30;;;;;;5027295;28;20132;-63
2022/08/09 11:32:49;;;;;;;0.00;0.00;;;22.00;66.60;;;;;;5029237;28;20088;-63
2022/08/09 11:35:18;;;;;;;0.00;0.00;;;22.00;64.10;;;;;;5028389;28;20045;-64
2022/08/09 11:37:46;;;;;;;0.00;0.00;;;22.10;66.00;;;;;;5030396;28;20049;-63
2022/08/09 11:40:22;;;;;;;0.00;0.00;;;22.20;65.80;;;;;;5008146;28;20485;-62
2022/08/09 11:42:51;;;;;;;0.00;0.00;;;22.30;65.20;;;;;;5028049;28;20038;-63
2022/08/09 11:45:37;;;;;;;0.00;0.00;;;22.40;64.80;;;;;;5010132;28;20067;-64
2022/08/09 11:48:26;;;;;;;0.00;0.00;;;22.60;65.90;;;;;;5004479;28;20529;-64
2022/08/09 11:51:00;;;;;;;0.00;0.00;;;23.00;65.50;;;;;;5024769;28;20152;-64
2022/08/09 11:53:33;;;;;;;0.00;0.00;;;23.20;65.00;;;;;;5027584;28;20097;-63
2022/08/09 11:56:03;;;;;;;0.00;0.00;;;23.40;64.30;;;;;;5026277;28;20140;-62
2022/08/09 11:58:30;;;;;;;0.00;0.00;;;23.50;63.80;;;;;;5009716;28;20068;-64
2022/08/09 12:01:02;;;;;;;0.00;0.00;;;23.50;63.00;;;;;;5026523;28;20141;-64
2022/08/09 12:03:29;;;;;;;0.00;0.00;;;23.60;63.20;;;;;;5027495;28;20041;-63
2022/08/09 12:05:57;;;;;;;0.00;0.00;;;23.60;63.10;;;;;;5027468;28;20426;-63
2022/08/09 12:08:25;;;;;;;0.00;0.00;;;23.70;63.20;;;;;;5027243;28;20041;-64
2022/08/09 12:10:57;;;;;;;0.00;0.00;;;23.60;61.80;;;;;;5027417;28;20095;-64
2022/08/09 12:13:40;;;;;;;0.00;0.00;;;23.70;62.50;;;;;;5028022;28;20056;-63
2022/08/09 12:16:08;;;;;;;0.00;0.00;;;23.80;62.70;;;;;;5008823;28;20081;-63
2022/08/09 12:18:36;;;;;;;0.00;0.00;;;23.90;62.30;;;;;;5017285;28;20048;-63
2022/08/09 12:21:06;;;;;;;0.00;0.00;;;24.00;62.10;;;;;;5027835;28;20069;-64
2022/08/09 12:23:33;;;;;;;0.00;0.00;;;24.10;62.20;;;;;;5027621;28;20087;-63
2022/08/09 12:25:59;;;;;;;0.00;0.00;;;24.10;61.20;;;;;;5027966;28;20050;-63
2022/08/09 12:28:26;;;;;;;0.00;0.00;;;24.20;60.80;;;;;;5031772;28;20049;-63
2022/08/09 12:30:52;;;;;;;0.00;0.00;;;24.30;61.40;;;;;;5030843;28;20141;-64
2022/08/09 12:33:20;;;;;;;0.00;0.00;;;24.30;59.90;;;;;;5028499;28;20046;-63
2022/08/09 12:35:46;;;;;;;0.00;0.00;;;24.20;60.50;;;;;;5013305;28;20060;-64
2022/08/09 12:38:29;;;;;;;0.00;0.00;;;24.20;60.20;;;;;;5031400;28;20041;-64
2022/08/09 12:40:56;;;;;;;0.00;0.00;;;24.30;60.20;;;;;;4994394;28;20057;-64
2022/08/09 12:43:24;;;;;;;0.00;0.00;;;24.30;58.00;;;;;;5012159;28;20096;-63
2022/08/09 12:45:52;;;;;;;0.00;0.00;;;24.20;59.30;;;;;;5011915;28;20062;-63
2022/08/09 12:48:18;;;;;;;0.00;0.00;;;24.20;59.10;;;;;;5030477;28;20045;-64
2022/08/09 12:50:45;;;;;;;0.00;0.00;;;24.20;59.50;;;;;;5031544;28;20559;-64
2022/08/09 12:53:32;;;;;;;0.00;0.00;;;24.20;59.50;;;;;;5031504;28;20057;-65
2022/08/09 12:56:11;;;;;;;0.00;0.00;;;24.40;60.10;;;;;;5031776;28;20518;-63